Belle Plaine, IA (52208)

9:58 AM CDT on June 03, 2015 (GMT -0500)
503Farms | | Change Station
CLOSE
Current Station
Personal Weather Station
Location: Belle Plaine, IA
Elevation: 883 ft
Nearby Weather Stations

Elev 883 ft 41.95 °N, 92.25 °W | Updated 4 minutes ago

Partly Cloudy
Partly Cloudy
67.3 °F
Feels Like 67.3 °F
N
7.8
Wind Variable Wind from SW

Today
High -- | Low -- °F
--% Chance of Precip.
Yesterday
High -- | Low -- °F
Precip. -- in
5:35 AM 8:39 PM
Full, 99% visible
Pressure 29.97 in
Visibility 10.0 miles
Clouds Mostly Cloudy 4000 ft
Mostly Cloudy 6000 ft
Dew Point 58 °F
Humidity 73%
Rainfall 0.00 in
Snow Depth Not available.
UV 3 out of 12
Pollen 7.80 out of 12
Air Quality Not available.
Flu Activity No Activity
METAR KVTI 031455Z AUTO 17012G16KT 10SM BKN040 BKN060 21/15 A2997 RMK AO2 T02130150

More Conditions Fewer Conditions

Pressure 29.97 in
Visibility 10.0 miles
Clouds Mostly Cloudy 4000 ft
Mostly Cloudy 6000 ft
Dew Point 58 °F
Humidity 73%
Rainfall 0.00 in
Snow Depth Not available.
UV 3 out of 12
Pollen 7.80 out of 12
Air Quality Not available.
Flu Activity No Activity
METAR KVTI 031455Z AUTO 17012G16KT 10SM BKN040 BKN060 21/15 A2997 RMK AO2 T02130150

More Conditions Fewer Conditions

10-Day Weather Forecast

×

Almanac

Astronomy

Jun. 03, 2015 Rise Set
Actual Time
Civil Twilight
Nautical Twilight
Astronomical Twilight
Moon
Length of Visible Light
Length of Day
Tomorrow will be .
, % of the Moon is Illuminated

Today's Extremes

State Highs State Lows

Community

WunderPhotos

Upload Photos

1,826,230 photos uploaded!

WunderBlogs® & News

Nearby

Air Quality

  Air Quality AQ Index Pollutant
Not available.

Snow Depth

Station Depth Elevation

Earthquake Activity

City Distance Mag. Time & Date
Minimum magnitude displayed is 2.5.

Coastal Water Temperatures

Place Temperature

Stations

Nearby Weather Stations

Station Location Temp. Windchill Dew Point Humidity Wind Precip. Elev Updated Type